Time;durP1;ratioP1;P1;durP2;ratioP2;P2;SDS_P1;SDS_P2;PMS_P1;PMS_P2;Temp;Humidity;BMP_temperature;BMP_pressure;BME280_temperature;BME280_humidity;BME280_pressure;Samples;Min_cycle;Max_cycle;Signal;HPM_P1;HPM_P2
2022/12/25 00:02:02;;;;;;;166.45;79.82;;;8.30;99.90;;;;;;4979034;28;20022;-75
2022/12/25 00:04:28;;;;;;;279.23;147.70;;;8.20;99.90;;;;;;4993443;28;20010;-75
2022/12/25 00:06:54;;;;;;;182.65;96.70;;;8.20;99.90;;;;;;4997126;28;20030;-75
2022/12/25 00:09:20;;;;;;;177.13;91.75;;;8.20;99.90;;;;;;4973358;28;20034;-75
2022/12/25 00:11:46;;;;;;;33.17;18.92;;;8.10;99.90;;;;;;4997144;28;20026;-75
2022/12/25 00:14:12;;;;;;;90.30;48.08;;;8.10;99.90;;;;;;4992541;28;20632;-76
2022/12/25 00:16:38;;;;;;;113.75;70.53;;;8.10;99.90;;;;;;4997375;28;20037;-75
2022/12/25 00:19:03;;;;;;;40.13;27.27;;;8.00;99.90;;;;;;4991533;28;20573;-75
2022/12/25 00:21:29;;;;;;;117.22;73.28;;;8.00;99.90;;;;;;4980109;28;20023;-75
2022/12/25 00:23:57;;;;;;;360.63;138.98;;;7.90;99.90;;;;;;4991130;28;20490;-75
2022/12/25 00:26:25;;;;;;;310.95;125.75;;;7.80;99.90;;;;;;4979779;28;20061;-75
2022/12/25 00:28:55;;;;;;;102.50;54.45;;;7.70;99.90;;;;;;4990992;28;20053;-75
2022/12/25 00:31:21;;;;;;;27.73;12.90;;;7.70;99.90;;;;;;4997385;28;20077;-74
2022/12/25 00:33:49;;;;;;;50.55;35.72;;;7.80;99.90;;;;;;4988258;28;20113;-75
2022/12/25 00:36:17;;;;;;;101.30;70.63;;;7.90;99.90;;;;;;4997299;28;20031;-74
2022/12/25 00:38:45;;;;;;;41.13;28.40;;;8.00;99.90;;;;;;4991055;28;20364;-75
2022/12/25 00:41:16;;;;;;;46.10;29.42;;;8.30;99.90;;;;;;4979776;28;20062;-74
2022/12/25 00:43:42;;;;;;;19.23;11.93;;;8.30;99.90;;;;;;4993561;28;20100;-74
2022/12/25 00:46:10;;;;;;;89.68;61.25;;;8.40;99.90;;;;;;4997383;28;20414;-75
2022/12/25 00:48:37;;;;;;;48.67;35.35;;;8.40;99.90;;;;;;4991383;28;20031;-75
2022/12/25 00:51:09;;;;;;;36.28;26.50;;;8.40;99.90;;;;;;4993411;28;20493;-75
2022/12/25 00:53:35;;;;;;;147.15;105.25;;;8.30;99.90;;;;;;4988377;28;20066;-75
2022/12/25 00:56:06;;;;;;;66.95;49.88;;;8.20;99.90;;;;;;4993855;28;20022;-75
2022/12/25 00:58:33;;;;;;;42.78;29.38;;;8.00;99.90;;;;;;4991812;28;20022;-75
2022/12/25 01:00:59;;;;;;;27.63;20.10;;;7.90;99.90;;;;;;4995351;28;20027;-75
2022/12/25 01:03:25;;;;;;;17.25;11.90;;;7.90;99.90;;;;;;4992722;28;20018;-75
2022/12/25 01:06:03;;;;;;;110.15;76.57;;;8.00;99.90;;;;;;4996398;28;20501;-74
2022/12/25 01:08:31;;;;;;;75.35;55.80;;;8.00;99.90;;;;;;4974374;28;20037;-73
2022/12/25 01:10:59;;;;;;;47.92;35.05;;;8.10;99.90;;;;;;4993479;28;20037;-75
2022/12/25 01:13:26;;;;;;;115.25;77.43;;;8.10;99.90;;;;;;4974677;28;20031;-74
2022/12/25 01:15:53;;;;;;;44.58;32.92;;;8.10;99.90;;;;;;4996742;28;20426;-75
2022/12/25 01:18:20;;;;;;;126.68;85.35;;;8.10;99.90;;;;;;4992522;28;20034;-75
2022/12/25 01:20:47;;;;;;;16.23;10.48;;;8.00;99.90;;;;;;4996056;28;20061;-75
2022/12/25 01:23:13;;;;;;;11.48;8.00;;;8.00;99.90;;;;;;4997128;28;20027;-75
2022/12/25 01:25:39;;;;;;;11.60;9.00;;;8.00;99.90;;;;;;4982882;28;20050;-74
2022/12/25 01:28:05;;;;;;;9.00;7.13;;;8.00;99.90;;;;;;4997485;28;20105;-74
2022/12/25 01:30:31;;;;;;;11.57;8.00;;;8.10;99.90;;;;;;4994184;28;20504;-75
2022/12/25 01:32:58;;;;;;;13.38;7.40;;;8.10;99.90;;;;;;4997507;28;20027;-74
2022/12/25 01:35:23;;;;;;;11.10;7.63;;;8.10;99.90;;;;;;4980258;28;20040;-74
2022/12/25 01:37:50;;;;;;;10.05;6.90;;;8.10;99.90;;;;;;4998648;28;20022;-74
2022/12/25 01:40:16;;;;;;;9.93;7.53;;;8.20;99.90;;;;;;4981555;28;20112;-74
2022/12/25 01:42:42;;;;;;;10.23;6.60;;;8.10;99.90;;;;;;4998352;28;20077;-74
2022/12/25 01:45:36;;;;;;;17.27;8.07;;;8.10;99.90;;;;;;4982788;28;20922;-75
2022/12/25 01:48:08;;;;;;;16.13;7.95;;;8.30;99.90;;;;;;4976023;28;20553;-76
2022/12/25 01:50:36;;;;;;;13.93;7.20;;;8.40;99.90;;;;;;4981018;28;20093;-75
2022/12/25 01:53:03;;;;;;;12.55;7.38;;;8.60;99.90;;;;;;4997270;28;20022;-75
2022/12/25 01:55:31;;;;;;;13.10;7.20;;;8.60;99.90;;;;;;4996918;28;20030;-74
2022/12/25 01:57:57;;;;;;;10.18;6.47;;;8.60;99.90;;;;;;4996242;28;20052;-74
2022/12/25 02:00:22;;;;;;;10.50;7.10;;;8.60;99.90;;;;;;4998486;28;20026;-75
2022/12/25 02:02:48;;;;;;;9.38;6.00;;;8.70;99.90;;;;;;4997018;28;20031;-74
2022/12/25 02:05:30;;;;;;;10.50;7.43;;;8.70;99.90;;;;;;4998495;28;20025;-74
2022/12/25 02:08:00;;;;;;;12.00;6.35;;;8.70;99.90;;;;;;4997198;28;20045;-74
2022/12/25 02:10:26;;;;;;;7.97;6.88;;;8.70;99.90;;;;;;4996269;28;20065;-74
2022/12/25 02:12:52;;;;;;;10.85;6.80;;;8.70;99.90;;;;;;4980195;28;20026;-73
2022/12/25 02:15:21;;;;;;;9.00;6.10;;;8.70;99.90;;;;;;4975454;28;20023;-75
2022/12/25 02:18:19;;;;;;;6.22;5.63;;;8.70;99.90;;;;;;4978895;28;20038;-74
2022/12/25 02:21:14;;;;;;;10.68;7.18;;;8.80;99.90;;;;;;4978343;28;20018;-74
2022/12/25 02:23:57;;;;;;;9.20;5.85;;;9.00;99.90;;;;;;4993408;28;20023;-74
2022/12/25 02:26:51;;;;;;;7.10;5.40;;;8.90;99.90;;;;;;5015629;28;20065;-74
2022/12/25 02:29:23;;;;;;;8.75;5.80;;;9.00;99.90;;;;;;5006369;28;20157;-74
2022/12/25 02:32:03;;;;;;;6.57;5.65;;;9.10;99.90;;;;;;5001258;28;20034;-73
2022/12/25 02:34:36;;;;;;;9.50;5.60;;;9.20;99.90;;;;;;4995161;28;20030;-74
2022/12/25 02:37:06;;;;;;;12.52;6.80;;;9.30;99.90;;;;;;5016714;28;20030;-74
2022/12/25 02:39:58;;;;;;;7.88;5.60;;;9.30;99.90;;;;;;5011659;28;20030;-74
2022/12/25 03:07:38;;;;;;;6.65;5.68;;;9.90;99.90;;;;;;5017746;28;20044;-74
2022/12/25 03:13:03;;;;;;;5.65;4.55;;;9.80;99.90;;;;;;5011569;28;20065;-74
2022/12/25 03:18:18;;;;;;;7.65;4.97;;;9.80;99.90;;;;;;5014873;28;20037;-74
2022/12/25 03:29:02;;;;;;;8.38;5.15;;;9.90;99.90;;;;;;5008999;28;20033;-75
2022/12/25 03:31:54;;;;;;;7.72;5.03;;;9.90;99.90;;;;;;5018130;28;20037;-75
2022/12/25 04:36:48;;;;;;;10.82;5.03;;;10.40;99.90;;;;;;5017041;28;20041;-74
2022/12/25 04:39:14;;;;;;;5.13;4.60;;;10.40;99.90;;;;;;5011790;28;20022;-75
2022/12/25 04:41:40;;;;;;;7.97;4.63;;;10.40;99.90;;;;;;4999280;28;20029;-74
2022/12/25 04:44:05;;;;;;;6.22;4.50;;;10.40;99.90;;;;;;4996620;28;20073;-76
2022/12/25 04:46:31;;;;;;;7.63;4.38;;;10.40;99.90;;;;;;4999152;28;20057;-74
2022/12/25 04:48:57;;;;;;;4.35;3.95;;;10.40;99.90;;;;;;4993786;28;20038;-77
2022/12/25 04:51:24;;;;;;;5.63;4.63;;;10.30;99.90;;;;;;5007913;28;20474;-77
2022/12/25 04:53:52;;;;;;;5.53;4.72;;;10.40;99.90;;;;;;5011394;28;20026;-74
2022/12/25 04:56:18;;;;;;;11.60;6.80;;;10.40;99.90;;;;;;5014040;28;20052;-75
2022/12/25 04:58:45;;;;;;;5.85;4.25;;;10.50;99.90;;;;;;5015128;28;20022;-76
2022/12/25 05:01:11;;;;;;;6.57;4.50;;;10.50;99.90;;;;;;5019890;28;20459;-77
2022/12/25 05:03:38;;;;;;;6.85;4.90;;;10.50;99.90;;;;;;5017316;28;20029;-77
2022/12/25 05:06:04;;;;;;;7.43;4.70;;;10.50;99.90;;;;;;5016532;28;20033;-76
2022/12/25 05:08:32;;;;;;;5.22;4.07;;;10.50;99.90;;;;;;4997899;28;20379;-77
2022/12/25 05:10:58;;;;;;;7.35;5.28;;;10.40;99.90;;;;;;4998541;28;20075;-77
2022/12/25 05:13:24;;;;;;;9.38;5.45;;;10.50;99.90;;;;;;5015714;28;20046;-75
2022/12/25 05:15:50;;;;;;;10.70;5.97;;;10.50;99.90;;;;;;5019170;28;20026;-74
2022/12/25 05:18:16;;;;;;;6.65;5.05;;;10.50;99.90;;;;;;4997633;28;20442;-74
2022/12/25 05:20:42;;;;;;;7.90;5.50;;;10.40;99.90;;;;;;5000153;28;20164;-74
2022/12/25 05:23:11;;;;;;;10.13;5.45;;;10.40;99.90;;;;;;5017408;28;20018;-74
2022/12/25 05:25:40;;;;;;;9.20;5.78;;;10.40;99.90;;;;;;5017119;28;20108;-76
2022/12/25 05:28:06;;;;;;;10.77;5.68;;;10.40;99.90;;;;;;5008432;28;20033;-75
2022/12/25 05:30:33;;;;;;;8.75;6.00;;;10.50;99.90;;;;;;4999824;28;20125;-74
2022/12/25 05:32:59;;;;;;;9.32;5.93;;;10.50;99.90;;;;;;5001591;28;20057;-77
2022/12/25 05:35:25;;;;;;;12.10;6.40;;;10.40;99.90;;;;;;4999613;28;20037;-75
2022/12/25 05:37:51;;;;;;;7.80;5.82;;;10.40;99.90;;;;;;5018309;28;20038;-75
2022/12/25 05:40:17;;;;;;;9.13;6.35;;;10.30;99.90;;;;;;5017788;28;20397;-75
2022/12/25 05:42:43;;;;;;;7.80;5.72;;;10.30;99.90;;;;;;5009523;28;20018;-75
2022/12/25 05:45:09;;;;;;;8.48;6.85;;;10.30;99.90;;;;;;5015660;28;20018;-75
2022/12/25 05:47:35;;;;;;;9.88;7.10;;;10.30;99.90;;;;;;5001376;28;20052;-76
2022/12/25 05:50:01;;;;;;;11.13;7.40;;;10.20;99.90;;;;;;5013800;28;20101;-75
2022/12/25 05:52:31;;;;;;;8.65;6.90;;;10.20;99.90;;;;;;5002769;28;20132;-75
2022/12/25 05:54:57;;;;;;;8.77;6.82;;;10.20;99.90;;;;;;5005151;28;20039;-75
2022/12/25 05:57:23;;;;;;;8.93;7.00;;;10.10;99.90;;;;;;5020023;28;20398;-75
2022/12/25 05:59:49;;;;;;;9.25;6.68;;;10.10;99.90;;;;;;5000024;28;20018;-74
2022/12/25 06:02:15;;;;;;;10.57;6.82;;;9.90;99.90;;;;;;5019843;28;20041;-74
2022/12/25 06:04:41;;;;;;;10.90;7.97;;;9.80;99.90;;;;;;4995996;28;20025;-74
2022/12/25 06:07:07;;;;;;;8.10;6.70;;;9.80;99.90;;;;;;5002594;28;20029;-74
2022/12/25 06:09:32;;;;;;;9.55;7.50;;;9.70;99.90;;;;;;4995745;28;20038;-73
2022/12/25 06:11:58;;;;;;;9.65;6.97;;;9.70;99.90;;;;;;5019691;28;20034;-74
2022/12/25 06:14:24;;;;;;;9.95;7.35;;;9.70;99.90;;;;;;5013429;28;20026;-74
2022/12/25 06:16:51;;;;;;;8.65;7.57;;;9.70;99.90;;;;;;5019196;28;20065;-74
2022/12/25 06:19:18;;;;;;;11.77;7.30;;;9.70;99.90;;;;;;4995373;28;20112;-74
2022/12/25 06:21:44;;;;;;;10.38;7.65;;;9.60;99.90;;;;;;5019445;28;20387;-76
2022/12/25 06:24:10;;;;;;;10.25;7.10;;;9.60;99.90;;;;;;5012548;28;20022;-74
2022/12/25 06:26:35;;;;;;;12.00;7.25;;;9.70;99.90;;;;;;4983817;28;20158;-74
2022/12/25 06:29:01;;;;;;;15.65;8.48;;;9.60;99.90;;;;;;4991333;28;20034;-75
2022/12/25 06:31:28;;;;;;;11.10;7.47;;;9.60;99.90;;;;;;4982109;28;20022;-76
2022/12/25 06:33:54;;;;;;;14.25;9.10;;;9.50;99.90;;;;;;4991634;28;20027;-74
2022/12/25 06:36:22;;;;;;;11.88;8.88;;;9.50;99.90;;;;;;4999460;28;20088;-74
2022/12/25 06:38:48;;;;;;;9.48;7.72;;;9.50;99.90;;;;;;4995492;28;20020;-74
2022/12/25 06:41:17;;;;;;;13.05;9.15;;;9.60;99.90;;;;;;4982127;28;20045;-73
2022/12/25 06:43:46;;;;;;;15.75;8.85;;;9.60;99.90;;;;;;4997076;28;20022;-77
2022/12/25 06:46:11;;;;;;;12.27;8.63;;;9.50;99.90;;;;;;4999265;28;20111;-74
2022/12/25 06:48:39;;;;;;;18.40;10.80;;;9.50;99.90;;;;;;4977966;28;20085;-74
2022/12/25 06:51:06;;;;;;;14.10;9.45;;;9.60;99.90;;;;;;4996295;28;20026;-75
2022/12/25 06:53:32;;;;;;;16.20;10.45;;;9.50;99.90;;;;;;4995224;28;20395;-75
2022/12/25 06:56:05;;;;;;;14.98;10.57;;;9.60;99.90;;;;;;4997201;28;20031;-73
2022/12/25 06:58:31;;;;;;;18.73;11.93;;;9.70;99.90;;;;;;4991670;28;20510;-76
2022/12/25 07:00:57;;;;;;;13.73;10.90;;;9.70;99.90;;;;;;4998263;28;20130;-74
2022/12/25 07:03:27;;;;;;;18.58;11.93;;;9.70;99.90;;;;;;4996765;28;20510;-74
2022/12/25 07:05:53;;;;;;;16.23;12.65;;;9.80;99.90;;;;;;4994677;28;20030;-76
2022/12/25 07:08:19;;;;;;;19.55;13.77;;;9.80;99.90;;;;;;4996658;28;20026;-74
2022/12/25 07:10:45;;;;;;;16.98;12.00;;;9.80;99.90;;;;;;4995310;28;20030;-74
2022/12/25 07:13:10;;;;;;;15.88;12.25;;;9.80;99.90;;;;;;4996426;28;20030;-75
2022/12/25 07:15:36;;;;;;;12.02;9.63;;;9.90;99.90;;;;;;4973563;28;20042;-76
2022/12/25 07:18:02;;;;;;;16.75;12.30;;;9.90;99.90;;;;;;4995428;28;20026;-75
2022/12/25 07:20:28;;;;;;;17.85;12.45;;;10.00;99.90;;;;;;4997057;28;20027;-74
2022/12/25 07:22:55;;;;;;;16.20;11.30;;;10.10;99.90;;;;;;4996573;28;20049;-74
2022/12/25 07:25:21;;;;;;;16.83;11.68;;;10.10;99.90;;;;;;4997757;28;20057;-74
2022/12/25 07:27:46;;;;;;;16.85;11.45;;;10.10;99.90;;;;;;5016267;28;20049;-75
2022/12/25 07:30:13;;;;;;;14.18;10.23;;;10.10;99.90;;;;;;4993739;28;20080;-75
2022/12/25 07:32:38;;;;;;;18.42;11.93;;;10.10;99.90;;;;;;4997253;28;20041;-74
2022/12/25 07:35:04;;;;;;;14.65;10.65;;;10.20;99.90;;;;;;4997629;28;20037;-74
2022/12/25 07:37:30;;;;;;;16.10;11.63;;;10.20;99.90;;;;;;5018327;28;20105;-75
2022/12/25 07:39:56;;;;;;;13.80;10.18;;;10.20;99.90;;;;;;5013451;28;20085;-75
2022/12/25 07:42:22;;;;;;;15.52;10.75;;;10.30;99.90;;;;;;5017862;28;20026;-74
2022/12/25 07:44:48;;;;;;;12.93;9.85;;;10.40;99.90;;;;;;5011135;28;20063;-75
2022/12/25 07:47:14;;;;;;;14.73;11.10;;;10.40;99.90;;;;;;4999934;28;20109;-75
2022/12/25 07:49:39;;;;;;;13.80;10.30;;;10.50;99.90;;;;;;5012248;28;20030;-74
2022/12/25 07:52:05;;;;;;;14.57;9.82;;;10.50;99.90;;;;;;5014387;28;20217;-73
2022/12/25 07:54:31;;;;;;;15.50;9.90;;;10.50;99.90;;;;;;5013181;28;20038;-74
2022/12/25 07:56:57;;;;;;;15.02;10.43;;;10.50;99.90;;;;;;5015613;28;20018;-74
2022/12/25 07:59:23;;;;;;;11.73;9.77;;;10.50;99.90;;;;;;5013145;28;20022;-76
2022/12/25 08:01:49;;;;;;;11.77;8.93;;;10.50;99.90;;;;;;5016807;28;20025;-74
2022/12/25 08:04:15;;;;;;;13.27;9.52;;;10.60;99.90;;;;;;5011209;28;20058;-75
2022/12/25 08:06:40;;;;;;;12.90;10.40;;;10.60;99.90;;;;;;5017561;28;20033;-75
2022/12/25 08:09:09;;;;;;;10.98;9.65;;;10.70;99.90;;;;;;5012275;28;20034;-75
2022/12/25 08:11:39;;;;;;;13.10;9.93;;;10.70;99.90;;;;;;4999816;28;20030;-74
2022/12/25 08:14:07;;;;;;;15.05;10.27;;;10.80;99.90;;;;;;4992236;28;20601;-74
2022/12/25 08:16:33;;;;;;;13.13;9.48;;;10.90;99.90;;;;;;5016922;28;20037;-74
2022/12/25 08:18:59;;;;;;;13.27;9.32;;;11.00;99.90;;;;;;4995520;28;20478;-74
2022/12/25 08:21:25;;;;;;;19.50;9.70;;;11.00;99.90;;;;;;5017082;28;20037;-74
2022/12/25 08:23:50;;;;;;;10.68;8.35;;;11.10;99.90;;;;;;4991674;28;20457;-75
2022/12/25 08:26:20;;;;;;;11.43;8.57;;;11.10;99.90;;;;;;5014895;28;20056;-74
2022/12/25 08:28:47;;;;;;;8.93;7.65;;;11.20;99.90;;;;;;4993184;28;20510;-75
2022/12/25 08:31:25;;;;;;;10.60;8.20;;;11.20;99.90;;;;;;4997758;28;20418;-75
2022/12/25 08:33:54;;;;;;;10.82;7.45;;;11.20;99.90;;;;;;4991912;28;20528;-75
2022/12/25 08:36:21;;;;;;;8.35;7.30;;;11.20;99.90;;;;;;5000787;28;20053;-74
2022/12/25 08:38:48;;;;;;;10.93;6.88;;;11.20;99.90;;;;;;4996861;28;20021;-75
2022/12/25 08:41:14;;;;;;;13.05;7.40;;;11.10;99.90;;;;;;5017168;28;20102;-75
2022/12/25 08:43:40;;;;;;;9.38;6.75;;;11.10;99.90;;;;;;5010974;28;20061;-74
2022/12/25 08:46:07;;;;;;;7.03;6.28;;;11.10;99.90;;;;;;5013597;28;20030;-76
2022/12/25 08:48:33;;;;;;;11.45;7.07;;;11.10;99.90;;;;;;4994984;28;20521;-74
2022/12/25 08:51:00;;;;;;;10.65;6.70;;;11.10;99.90;;;;;;4998854;28;20034;-76
2022/12/25 08:53:26;;;;;;;10.00;7.32;;;11.10;99.90;;;;;;4996655;28;20045;-75
2022/12/25 08:56:05;;;;;;;10.48;6.75;;;11.10;99.90;;;;;;5015597;28;20059;-76
2022/12/25 08:58:31;;;;;;;10.55;7.28;;;11.00;99.90;;;;;;5011224;28;20040;-75
2022/12/25 09:00:57;;;;;;;13.30;8.00;;;10.90;99.90;;;;;;4999347;28;20057;-77
2022/12/25 09:03:23;;;;;;;14.48;6.88;;;10.90;99.90;;;;;;5010729;28;20036;-77
2022/12/25 09:05:50;;;;;;;10.98;8.05;;;10.80;99.90;;;;;;4999115;28;20022;-76
2022/12/25 09:08:16;;;;;;;12.20;7.47;;;10.80;99.90;;;;;;4995469;28;20042;-75
2022/12/25 09:10:42;;;;;;;9.88;8.65;;;10.80;99.90;;;;;;5016595;28;20026;-74
2022/12/25 09:13:08;;;;;;;11.73;8.93;;;10.80;99.90;;;;;;4997646;28;20030;-76
2022/12/25 09:15:36;;;;;;;13.07;9.43;;;10.80;99.90;;;;;;4988415;28;20026;-75
2022/12/25 09:18:02;;;;;;;15.10;11.00;;;10.70;99.90;;;;;;5011567;28;20050;-74
2022/12/25 09:20:28;;;;;;;12.27;9.93;;;10.70;99.90;;;;;;4992308;28;20018;-74
2022/12/25 09:22:54;;;;;;;14.65;10.52;;;10.70;99.90;;;;;;4996969;28;20018;-75
2022/12/25 09:25:20;;;;;;;14.20;10.55;;;10.70;99.90;;;;;;4995504;28;20418;-74
2022/12/25 09:27:46;;;;;;;15.32;10.80;;;10.80;99.90;;;;;;5015272;28;20105;-76
2022/12/25 09:30:12;;;;;;;12.82;10.23;;;10.90;99.90;;;;;;5010520;28;20050;-75
2022/12/25 09:32:39;;;;;;;14.35;11.23;;;10.90;99.90;;;;;;4996009;28;20026;-75
2022/12/25 09:35:06;;;;;;;15.10;11.27;;;10.90;99.90;;;;;;4994134;28;20037;-75
2022/12/25 09:37:32;;;;;;;15.43;10.82;;;10.90;99.90;;;;;;4998020;28;20034;-75
2022/12/25 09:39:58;;;;;;;14.30;10.07;;;10.90;99.90;;;;;;4996655;28;20068;-76
2022/12/25 09:42:30;;;;;;;15.20;11.23;;;10.90;99.90;;;;;;5015854;28;20367;-76
2022/12/25 09:45:01;;;;;;;14.27;10.00;;;11.00;99.90;;;;;;5013419;28;20128;-76
2022/12/25 09:47:34;;;;;;;12.13;9.75;;;11.10;99.90;;;;;;5018268;28;20508;-76
2022/12/25 09:50:06;;;;;;;16.80;9.45;;;11.10;99.90;;;;;;4998724;28;20398;-76
2022/12/25 09:52:42;;;;;;;13.65;11.07;;;11.10;99.90;;;;;;5009170;28;20030;-75
2022/12/25 09:55:19;;;;;;;15.88;12.02;;;11.20;99.90;;;;;;4995400;28;20148;-76
2022/12/25 09:57:49;;;;;;;16.83;9.90;;;11.30;99.90;;;;;;5017652;28;20413;-75
2022/12/25 10:00:17;;;;;;;17.55;11.57;;;11.30;99.90;;;;;;4998454;28;20021;-75
2022/12/25 10:03:37;;;;;;;18.88;11.40;;;11.40;99.90;;;;;;5017651;28;20504;-75
2022/12/25 10:06:21;;;;;;;15.35;11.18;;;11.40;99.90;;;;;;4974854;28;20041;-75
2022/12/25 10:09:08;;;;;;;13.05;8.25;;;11.50;99.90;;;;;;4998373;28;20029;-75
2022/12/25 10:11:36;;;;;;;14.63;11.20;;;11.50;99.90;;;;;;5013301;28;20022;-76
2022/12/25 10:14:34;;;;;;;17.40;10.10;;;11.50;99.90;;;;;;5008416;28;20054;-76
2022/12/25 10:17:15;;;;;;;15.30;11.15;;;11.60;99.90;;;;;;5014225;28;20030;-76
2022/12/25 10:19:55;;;;;;;16.23;11.77;;;11.60;99.90;;;;;;5009600;28;20497;-75
2022/12/25 10:22:47;;;;;;;;;;;11.70;99.90;;;;;;4991375;28;20050;-74
2022/12/25 10:25:17;;;;;;;13.32;10.73;;;11.80;99.90;;;;;;4985324;28;19960;-76
2022/12/25 10:27:43;;;;;;;19.17;11.40;;;11.90;99.90;;;;;;4994964;28;20038;-74
2022/12/25 10:30:18;;;;;;;14.50;11.27;;;12.00;99.90;;;;;;4972422;28;20678;-75
2022/12/25 10:32:45;;;;;;;15.73;10.70;;;12.00;99.90;;;;;;4978444;28;20081;-74
2022/12/25 10:35:13;;;;;;;17.23;10.80;;;12.00;99.90;;;;;;4988881;28;20023;-76
2022/12/25 10:37:41;;;;;;;14.65;11.23;;;12.10;99.90;;;;;;4996794;28;20023;-77
2022/12/25 10:40:22;;;;;;;11.38;9.95;;;12.10;99.90;;;;;;4971841;28;20513;-75
2022/12/25 10:42:53;;;;;;;15.45;9.43;;;12.10;99.90;;;;;;4997659;28;20054;-76
2022/12/25 10:45:19;;;;;;;16.20;10.70;;;12.20;99.90;;;;;;4989514;28;20030;-74
2022/12/25 10:47:46;;;;;;;18.55;10.63;;;12.30;99.90;;;;;;4997402;28;20018;-77
2022/12/25 10:50:24;;;;;;;13.95;10.80;;;12.30;99.90;;;;;;4994637;28;20031;-75
2022/12/25 10:52:59;;;;;;;15.52;9.70;;;12.30;99.90;;;;;;4995815;28;20093;-77
2022/12/25 10:55:25;;;;;;;13.15;9.52;;;12.30;99.90;;;;;;4994952;28;20027;-75
2022/12/25 10:57:51;;;;;;;18.58;11.25;;;12.30;99.90;;;;;;4980479;28;20504;-77
2022/12/25 11:00:22;;;;;;;12.27;10.05;;;12.40;99.90;;;;;;4995449;28;20033;-76
2022/12/25 11:02:48;;;;;;;13.13;10.43;;;12.40;99.90;;;;;;4997300;28;20021;-78
2022/12/25 11:05:27;;;;;;;15.35;9.65;;;12.40;99.90;;;;;;4993772;28;20025;-76
2022/12/25 11:07:54;;;;;;;13.57;10.55;;;12.40;99.90;;;;;;4997115;28;20018;-74
2022/12/25 11:10:24;;;;;;;12.73;10.98;;;12.40;99.90;;;;;;4990987;28;20577;-73
2022/12/25 11:12:51;;;;;;;13.07;10.70;;;12.40;99.90;;;;;;4979913;28;20050;-73
2022/12/25 11:15:39;;;;;;;13.13;10.40;;;12.40;99.90;;;;;;4991636;28;20041;-74
2022/12/25 11:18:23;;;;;;;14.20;9.77;;;12.30;99.90;;;;;;4996555;28;20031;-76
2022/12/25 11:21:00;;;;;;;13.80;9.68;;;12.30;99.90;;;;;;4992250;28;20025;-74
2022/12/25 11:23:28;;;;;;;12.07;9.85;;;12.30;99.90;;;;;;4982363;28;20038;-75
2022/12/25 11:26:01;;;;;;;12.80;10.15;;;12.20;99.90;;;;;;5008495;28;20053;-74
2022/12/25 11:28:29;;;;;;;12.10;10.50;;;12.20;99.90;;;;;;5013351;28;20038;-74
2022/12/25 11:31:11;;;;;;;15.68;9.35;;;12.20;99.90;;;;;;5016450;28;20108;-74
2022/12/25 11:33:54;;;;;;;10.38;8.75;;;12.30;99.90;;;;;;5009657;28;20030;-74
2022/12/25 11:36:44;;;;;;;12.23;10.18;;;12.30;99.90;;;;;;5010702;28;20022;-74
2022/12/25 11:39:35;;;;;;;12.70;8.45;;;12.30;99.90;;;;;;4994379;28;20036;-74
2022/12/25 11:42:32;;;;;;;13.48;8.93;;;12.30;99.90;;;;;;5016914;28;20145;-75
2022/12/25 11:45:16;;;;;;;14.88;9.05;;;12.30;99.90;;;;;;5010464;28;20044;-74
2022/12/25 11:47:50;;;;;;;12.95;9.57;;;12.40;99.90;;;;;;5007475;28;20385;-73
2022/12/25 11:50:33;;;;;;;12.27;9.57;;;12.40;99.90;;;;;;5012538;28;20069;-75
2022/12/25 11:53:17;;;;;;;8.48;6.63;;;12.50;99.90;;;;;;5015489;28;20460;-75
2022/12/25 11:55:55;;;;;;;14.95;9.57;;;12.50;99.90;;;;;;4998450;28;20061;-74
2022/12/25 11:58:43;;;;;;;11.15;8.70;;;12.60;99.90;;;;;;4996426;28;20117;-74
2022/12/25 12:01:28;;;;;;;11.75;8.23;;;12.60;99.90;;;;;;4989095;28;20028;-74
2022/12/25 12:03:54;;;;;;;12.25;9.13;;;12.60;99.90;;;;;;5013727;28;20053;-74
2022/12/25 12:06:44;;;;;;;12.73;8.23;;;12.60;99.90;;;;;;5016475;28;20021;-74
2022/12/25 12:09:45;;;;;;;13.18;8.05;;;12.60;99.90;;;;;;4992957;28;20048;-73
2022/12/25 12:12:24;;;;;;;9.77;8.38;;;12.70;99.90;;;;;;4990060;28;20037;-74
2022/12/25 12:15:25;;;;;;;16.13;8.95;;;12.70;99.90;;;;;;5008278;28;20033;-74
2022/12/25 12:17:50;;;;;;;15.73;8.57;;;12.80;99.90;;;;;;5011632;28;20402;-74
2022/12/25 12:20:42;;;;;;;12.25;8.30;;;12.80;99.90;;;;;;5006536;28;20030;-74
2022/12/25 12:23:16;;;;;;;8.95;7.03;;;12.80;99.90;;;;;;4995604;28;20030;-75
2022/12/25 12:25:44;;;;;;;9.73;7.47;;;12.80;99.90;;;;;;5003410;28;20528;-75
2022/12/25 12:28:20;;;;;;;9.52;7.97;;;12.80;99.90;;;;;;5014996;28;20025;-74
2022/12/25 12:31:02;;;;;;;17.70;8.65;;;12.80;99.90;;;;;;4988735;28;20026;-74
2022/12/25 12:33:50;;;;;;;12.60;7.82;;;12.80;99.90;;;;;;4984480;28;20030;-73
2022/12/25 12:36:21;;;;;;;12.07;7.85;;;12.90;99.90;;;;;;5003999;28;20129;-74
2022/12/25 12:38:49;;;;;;;8.85;7.40;;;12.90;99.90;;;;;;4993466;28;20041;-75
2022/12/25 12:41:16;;;;;;;12.63;8.27;;;12.90;99.90;;;;;;4995418;28;20025;-75
2022/12/25 12:43:51;;;;;;;13.20;8.07;;;12.90;99.90;;;;;;4994876;28;20026;-75
2022/12/25 12:46:26;;;;;;;11.07;8.80;;;12.80;99.90;;;;;;5014306;28;20033;-74
2022/12/25 12:48:54;;;;;;;13.43;8.23;;;12.80;99.90;;;;;;4994307;28;20084;-74
2022/12/25 12:51:29;;;;;;;16.45;7.07;;;12.80;99.90;;;;;;4992934;28;20117;-74
2022/12/25 12:54:23;;;;;;;12.20;7.15;;;12.80;99.90;;;;;;5012199;28;20041;-74
2022/12/25 12:57:00;;;;;;;15.18;6.70;;;12.90;99.90;;;;;;5011329;28;20085;-74
2022/12/25 12:59:38;;;;;;;13.20;7.10;;;12.90;99.90;;;;;;4994006;28;20509;-75
2022/12/25 13:02:42;;;;;;;14.88;7.03;;;12.90;99.90;;;;;;5014036;28;20016;-75
2022/12/25 13:05:46;;;;;;;8.93;6.07;;;12.90;99.90;;;;;;5007676;28;20030;-75
2022/12/25 13:09:00;;;;;;;11.23;6.70;;;13.00;99.90;;;;;;4997362;28;20033;-75
2022/12/25 13:11:30;;;;;;;11.70;7.28;;;13.00;99.90;;;;;;5002709;28;20032;-75
2022/12/25 13:13:59;;;;;;;12.25;7.07;;;12.90;99.90;;;;;;5009340;28;20023;-75
2022/12/25 13:16:35;;;;;;;13.20;7.03;;;12.90;99.90;;;;;;5007013;28;20022;-75
2022/12/25 13:19:24;;;;;;;13.95;7.13;;;12.90;99.90;;;;;;5013499;28;20113;-75
2022/12/25 13:21:57;;;;;;;10.20;6.78;;;12.80;99.90;;;;;;5017823;28;20421;-74
2022/12/25 13:24:35;;;;;;;11.63;7.72;;;12.80;99.90;;;;;;5013572;28;20113;-74
2022/12/25 13:27:19;;;;;;;15.10;8.35;;;12.80;99.90;;;;;;5012808;28;20107;-75
2022/12/25 13:29:45;;;;;;;13.18;7.55;;;12.80;99.90;;;;;;4996432;28;20030;-74
2022/12/25 13:32:32;;;;;;;12.32;7.00;;;12.80;99.90;;;;;;5002653;28;20036;-75
2022/12/25 13:34:59;;;;;;;10.35;6.45;;;12.80;99.90;;;;;;5011262;28;20061;-74
2022/12/25 13:37:29;;;;;;;15.70;7.55;;;12.80;99.90;;;;;;5016495;28;20029;-74
2022/12/25 13:40:04;;;;;;;10.35;7.38;;;12.80;99.90;;;;;;5012790;28;20026;-73
2022/12/25 13:42:32;;;;;;;16.13;10.00;;;12.80;99.90;;;;;;4997623;28;20022;-74
2022/12/25 13:44:59;;;;;;;14.52;7.20;;;12.80;99.90;;;;;;5004197;28;20030;-73
2022/12/25 13:47:28;;;;;;;11.18;7.47;;;12.90;99.90;;;;;;5000833;28;20406;-74
2022/12/25 13:49:55;;;;;;;18.75;7.68;;;12.90;99.90;;;;;;4996128;28;20173;-74
2022/12/25 13:52:41;;;;;;;13.60;7.35;;;12.90;99.90;;;;;;5019692;28;20022;-73
2022/12/25 13:55:29;;;;;;;14.25;8.05;;;12.90;99.90;;;;;;5006958;28;20053;-74
2022/12/25 13:57:58;;;;;;;12.70;7.80;;;12.90;99.90;;;;;;5010201;28;20523;-74
2022/12/25 14:00:45;;;;;;;11.82;8.02;;;13.00;99.90;;;;;;5010211;28;20525;-74
2022/12/25 14:03:25;;;;;;;15.82;7.38;;;12.90;99.90;;;;;;5017349;28;20442;-74
2022/12/25 14:05:59;;;;;;;10.63;6.97;;;12.90;99.90;;;;;;5016410;28;20022;-73
2022/12/25 14:08:27;;;;;;;9.43;6.80;;;13.00;99.90;;;;;;5014737;28;20029;-75
2022/12/25 14:11:08;;;;;;;13.55;8.10;;;13.00;99.90;;;;;;5017552;28;20030;-75
2022/12/25 14:13:41;;;;;;;15.30;9.00;;;13.00;99.90;;;;;;4994304;28;20057;-75
2022/12/25 14:16:08;;;;;;;15.70;8.43;;;12.90;99.90;;;;;;5015660;28;20444;-76
2022/12/25 14:18:34;;;;;;;16.48;7.85;;;12.90;99.90;;;;;;5014616;28;20026;-74
2022/12/25 14:21:12;;;;;;;9.52;6.82;;;12.90;99.90;;;;;;4998755;28;20053;-74
2022/12/25 14:23:47;;;;;;;13.38;7.78;;;12.80;99.90;;;;;;4996322;28;20122;-73
2022/12/25 14:26:20;;;;;;;18.05;8.27;;;12.80;99.90;;;;;;4999087;28;20064;-75
2022/12/25 14:28:49;;;;;;;11.20;7.63;;;12.80;99.90;;;;;;5012377;28;20034;-74
2022/12/25 14:31:17;;;;;;;11.55;7.22;;;12.80;99.90;;;;;;4995383;28;20057;-74
2022/12/25 14:33:44;;;;;;;12.68;8.18;;;12.80;99.90;;;;;;5012862;28;20030;-75
2022/12/25 14:36:21;;;;;;;14.00;8.43;;;12.70;99.90;;;;;;5012757;28;20378;-75
2022/12/25 14:38:58;;;;;;;13.18;8.05;;;12.70;99.90;;;;;;5012799;28;20081;-74
2022/12/25 14:41:36;;;;;;;14.07;7.82;;;12.60;99.90;;;;;;5001574;28;20037;-75